Time;durP1;ratioP1;P1;durP2;ratioP2;P2;SDS_P1;SDS_P2;PMS_P1;PMS_P2;Temp;Humidity;BMP_temperature;BMP_pressure;BME280_temperature;BME280_humidity;BME280_pressure;Samples;Min_cycle;Max_cycle;Signal;HPM_P1;HPM_P2
2021/03/12 00:01:23;;;;;;;10.73;2.30;;;;;;;11.27;51.58;100237.66;4914133;28;119219;-68
2021/03/12 00:03:49;;;;;;;11.15;2.72;;;;;;;11.25;51.85;100243.03;4910329;28;123052;-68
2021/03/12 00:06:16;;;;;;;10.32;2.60;;;;;;;11.21;51.88;100245.97;4931897;28;124104;-67
2021/03/12 00:08:46;;;;;;;8.25;2.47;;;;;;;11.18;51.86;100246.13;4913545;28;118638;-67
2021/03/12 00:11:13;;;;;;;11.73;2.65;;;;;;;11.14;52.10;100260.50;4930495;28;117894;-68
2021/03/12 00:13:40;;;;;;;12.70;2.53;;;;;;;11.10;52.44;100255.38;4931004;28;123357;-67
2021/03/12 00:16:07;;;;;;;9.30;2.50;;;;;;;11.07;52.48;100263.47;4933186;28;124346;-68
2021/03/12 00:18:38;;;;;;;10.85;2.42;;;;;;;11.05;52.33;100262.72;4927888;28;119572;-68
2021/03/12 00:21:06;;;;;;;11.52;2.45;;;;;;;11.03;52.23;100261.94;4932314;28;119741;-68
2021/03/12 00:23:33;;;;;;;12.30;2.55;;;;;;;11.02;52.60;100268.22;4912628;28;124330;-68
2021/03/12 00:26:02;;;;;;;9.88;2.40;;;;;;;11.01;52.34;100255.88;4914900;28;124617;-68
2021/03/12 00:28:32;;;;;;;9.60;2.50;;;;;;;11.02;52.27;100277.94;4913573;28;117503;-68
2021/03/12 00:30:59;;;;;;;13.43;2.45;;;;;;;11.01;52.63;100293.00;4914946;28;118440;-67
2021/03/12 00:33:28;;;;;;;8.77;2.30;;;;;;;11.02;52.63;100294.72;4915868;28;123557;-68
2021/03/12 00:35:55;;;;;;;9.88;2.60;;;;;;;11.03;52.30;100301.69;4930112;28;124308;-68
2021/03/12 00:38:22;;;;;;;13.82;3.00;;;;;;;11.04;52.64;100308.72;4931148;28;119270;-68
2021/03/12 00:40:55;;;;;;;11.45;2.15;;;;;;;11.03;52.24;100312.31;4914020;28;117062;-68
2021/03/12 00:43:25;;;;;;;13.25;2.78;;;;;;;11.03;52.38;100312.31;4912937;28;123280;-68
2021/03/12 00:45:59;;;;;;;11.88;2.80;;;;;;;11.03;52.39;100327.34;4956125;23;123037;-73
2021/03/12 00:48:28;;;;;;;10.15;2.95;;;;;;;11.04;52.13;100334.38;4948806;28;119470;-72
2021/03/12 00:50:57;;;;;;;9.45;2.80;;;;;;;11.04;52.23;100340.53;4927069;28;119032;-73
2021/03/12 00:53:34;;;;;;;9.90;2.92;;;;;;;11.05;52.41;100347.53;4951716;28;123260;-73
2021/03/12 00:56:03;;;;;;;8.48;2.83;;;;;;;11.04;52.45;100335.22;4945398;28;123023;-72
2021/03/12 00:58:31;;;;;;;11.82;3.13;;;;;;;11.04;52.54;100353.78;4941598;28;118426;-72
2021/03/12 01:01:01;;;;;;;10.50;2.70;;;;;;;11.03;52.49;100370.59;4959687;28;119241;-73
2021/03/12 01:03:32;;;;;;;12.02;2.83;;;;;;;11.03;52.19;100362.66;4939630;28;123977;-73
2021/03/12 01:06:05;;;;;;;11.40;2.88;;;;;;;11.03;51.94;100375.91;4923445;28;123300;-73
2021/03/12 01:08:41;;;;;;;10.13;2.58;;;;;;;11.02;51.88;100373.31;4945437;28;119163;-73
2021/03/12 01:11:08;;;;;;;10.48;2.85;;;;;;;11.00;52.00;100375.22;4944831;28;118608;-73
2021/03/12 01:13:38;;;;;;;9.05;2.33;;;;;;;11.00;52.21;100386.69;4947575;28;123175;-73
2021/03/12 01:16:04;;;;;;;8.23;2.38;;;;;;;11.00;51.89;100375.22;4959444;28;124717;-72
2021/03/12 01:18:31;;;;;;;11.80;2.42;;;;;;;10.99;52.01;100387.63;4950606;28;118612;-73
2021/03/12 01:21:07;;;;;;;9.30;2.72;;;;;;;10.98;51.94;100399.16;4947327;28;118317;-73
2021/03/12 01:23:34;;;;;;;9.55;2.50;;;;;;;10.97;51.65;100402.75;4948427;28;123551;-73
2021/03/12 01:26:01;;;;;;;6.72;2.30;;;;;;;10.97;51.98;100401.88;4947383;28;123768;-73
2021/03/12 01:28:36;;;;;;;;;;;;;;;10.95;52.04;100404.63;4944917;28;119367;-73
2021/03/12 01:31:03;;;;;;;6.90;2.08;;;;;;;10.95;51.51;100409.06;4952456;28;118295;-73
2021/03/12 01:33:41;;;;;;;9.18;2.42;;;;;;;10.93;51.75;100401.19;4945145;28;123367;-73
2021/03/12 01:36:09;;;;;;;8.43;2.45;;;;;;;10.89;51.94;100399.66;4950316;28;123466;-73
2021/03/12 01:38:48;;;;;;;13.30;2.40;;;;;;;10.88;51.62;100398.78;4949282;28;118840;-73
2021/03/12 01:41:16;;;;;;;11.40;2.53;;;;;;;10.88;51.84;100387.34;4949537;28;119228;-73
2021/03/12 01:43:46;;;;;;;12.52;2.55;;;;;;;10.87;51.50;100412.13;4950870;28;123420;-73
2021/03/12 01:46:13;;;;;;;14.35;2.60;;;;;;;10.86;51.83;100410.41;4947161;28;123171;-73
2021/03/12 01:48:41;;;;;;;9.93;2.17;;;;;;;10.86;51.55;100421.00;4942924;28;118693;-73
2021/03/12 01:51:09;;;;;;;8.50;2.47;;;;;;;10.85;51.62;100420.16;4957776;28;119264;-73
2021/03/12 01:53:37;;;;;;;11.13;2.42;;;;;;;10.84;51.34;100417.59;4961143;28;124364;-73
2021/03/12 01:56:06;;;;;;;8.02;2.22;;;;;;;10.85;51.62;100413.97;4947407;28;124316;-73
2021/03/12 01:58:40;;;;;;;9.02;2.30;;;;;;;10.86;51.39;100421.00;4961493;28;119614;-73
2021/03/12 02:01:15;;;;;;;11.30;2.47;;;;;;;10.84;51.83;100428.19;4942288;28;118184;-73
2021/03/12 02:03:53;;;;;;;9.60;2.45;;;;;;;10.85;51.50;100429.88;4941569;28;123287;-73
2021/03/12 02:06:31;;;;;;;8.68;2.63;;;;;;;10.84;51.54;100422.88;4940231;28;123291;-73
2021/03/12 02:09:01;;;;;;;10.40;2.60;;;;;;;10.83;51.60;100426.44;4926675;28;119700;-73
2021/03/12 02:11:37;;;;;;;11.77;2.63;;;;;;;10.82;51.91;100430.06;4950443;28;117558;-72
2021/03/12 02:14:14;;;;;;;9.00;2.60;;;;;;;10.82;51.69;100432.72;4943331;28;123114;-73
2021/03/12 02:16:53;;;;;;;9.43;2.63;;;;;;;10.81;51.46;100433.63;4922953;28;123629;-73
2021/03/12 02:20:09;;;;;;;10.13;2.90;;;;;;;10.79;51.67;100440.81;4956863;28;119678;-73
2021/03/12 02:22:41;;;;;;;8.60;2.60;;;;;;;10.78;51.69;100439.09;4887517;28;118826;-72
2021/03/12 02:25:17;;;;;;;8.90;2.33;;;;;;;10.77;51.53;100443.53;4944963;28;123096;-73
2021/03/12 02:28:01;;;;;;;8.57;2.50;;;;;;;10.77;51.46;100442.69;4923418;28;123492;-73
2021/03/12 02:30:28;;;;;;;9.88;2.70;;;;;;;10.76;51.58;100451.56;4929576;28;120035;-73
2021/03/12 02:32:56;;;;;;;12.02;3.08;;;;;;;10.73;51.55;100451.72;4947030;28;119880;-73
2021/03/12 02:35:32;;;;;;;9.85;2.53;;;;;;;10.71;51.80;100455.28;4947637;28;124060;-73
2021/03/12 02:38:24;;;;;;;12.40;2.60;;;;;;;10.69;51.75;100451.88;4950730;28;122879;-73
2021/03/12 02:40:54;;;;;;;11.48;2.60;;;;;;;10.67;51.77;100461.69;4946232;28;118648;-73
2021/03/12 02:43:37;;;;;;;11.02;2.83;;;;;;;10.65;51.74;100474.16;4948048;28;118318;-73
2021/03/12 02:46:05;;;;;;;8.75;2.25;;;;;;;10.62;52.00;100476.97;4940386;28;123847;-73
2021/03/12 02:48:34;;;;;;;9.15;2.60;;;;;;;10.60;51.69;100470.03;4940122;28;123879;-73
2021/03/12 02:51:05;;;;;;;9.93;2.65;;;;;;;10.58;51.95;100483.34;4934704;28;118513;-73
2021/03/12 02:53:36;;;;;;;15.30;2.92;;;;;;;10.56;51.74;100479.94;4940295;28;117706;-73
2021/03/12 02:56:25;;;;;;;11.40;2.50;;;;;;;10.54;51.73;100476.50;4947050;28;123567;-73
2021/03/12 02:58:53;;;;;;;11.23;2.60;;;;;;;10.53;51.95;100488.03;4940010;28;123076;-73
2021/03/12 03:01:40;;;;;;;12.00;2.80;;;;;;;10.52;51.84;100488.97;4951227;28;119037;-72
2021/03/12 03:04:16;;;;;;;11.63;2.38;;;;;;;10.50;52.02;100488.19;4945551;28;118186;-73
2021/03/12 03:06:57;;;;;;;11.43;2.60;;;;;;;10.49;52.02;100491.75;4948659;28;124491;-73
2021/03/12 03:09:25;;;;;;;8.57;2.47;;;;;;;10.47;52.23;100498.91;4955550;28;123069;-72
2021/03/12 03:11:53;;;;;;;12.07;2.50;;;;;;;10.45;52.04;100500.78;4948118;28;118500;-73
2021/03/12 03:14:20;;;;;;;11.23;2.72;;;;;;;10.41;52.12;100500.09;4931263;28;117907;-72
2021/03/12 03:16:48;;;;;;;9.75;2.30;;;;;;;10.40;52.24;100502.84;4953761;28;124794;-72
2021/03/12 03:19:17;;;;;;;9.95;2.67;;;;;;;10.37;52.03;100508.28;4946725;28;123627;-73
2021/03/12 03:21:46;;;;;;;10.93;2.55;;;;;;;10.36;52.14;100518.00;4953533;28;119581;-73
2021/03/12 03:24:13;;;;;;;12.27;2.70;;;;;;;10.33;52.36;100513.69;4949535;28;120172;-73
2021/03/12 03:26:40;;;;;;;14.93;2.72;;;;;;;10.30;52.24;100513.88;4952961;28;124067;-72
2021/03/12 03:29:08;;;;;;;12.65;2.50;;;;;;;10.30;52.22;100519.16;4949463;28;122958;-73
2021/03/12 03:31:36;;;;;;;13.55;2.42;;;;;;;10.28;52.17;100521.00;4952264;28;119891;-72
2021/03/12 03:34:02;;;;;;;10.88;2.38;;;;;;;10.25;51.98;100518.50;4956590;28;118263;-72
2021/03/12 03:36:31;;;;;;;15.90;2.63;;;;;;;10.24;52.15;100521.22;4935159;28;124267;-72
2021/03/12 03:39:00;;;;;;;8.77;2.08;;;;;;;10.24;52.30;100521.22;4951116;28;122461;-73
2021/03/12 03:41:27;;;;;;;14.27;2.65;;;;;;;10.22;52.46;100516.00;4930224;28;118560;-72
2021/03/12 03:43:59;;;;;;;12.32;2.67;;;;;;;10.21;52.28;100524.00;4934495;28;119703;-72
2021/03/12 03:46:31;;;;;;;11.68;2.60;;;;;;;10.18;52.28;100525.00;4946963;28;123645;-72
2021/03/12 03:48:59;;;;;;;12.73;2.58;;;;;;;10.16;52.39;100532.19;4950440;28;123193;-73
2021/03/12 03:51:38;;;;;;;12.35;2.53;;;;;;;10.12;52.26;100535.91;4935071;28;118453;-72
2021/03/12 03:54:06;;;;;;;12.55;2.30;;;;;;;10.08;52.31;100539.63;4951452;28;119025;-73
2021/03/12 03:56:37;;;;;;;15.10;2.75;;;;;;;10.03;52.37;100541.63;4935730;28;123372;-72
2021/03/12 03:59:05;;;;;;;9.02;2.28;;;;;;;10.01;52.28;100548.78;4939550;28;122993;-73
2021/03/12 04:01:35;;;;;;;13.65;2.45;;;;;;;9.96;52.19;100540.22;4935805;28;119085;-73
2021/03/12 04:04:02;;;;;;;12.00;2.28;;;;;;;9.91;52.27;100549.22;4921189;28;118078;-73
2021/03/12 04:06:32;;;;;;;12.77;2.72;;;;;;;9.87;52.55;100552.94;4949412;28;123343;-73
2021/03/12 04:09:03;;;;;;;9.32;2.30;;;;;;;9.84;52.64;100553.06;4961968;28;124309;-72
2021/03/12 04:11:33;;;;;;;12.55;2.47;;;;;;;9.80;52.48;100558.59;4949463;28;119993;-72
2021/03/12 04:14:01;;;;;;;11.35;2.75;;;;;;;9.74;52.28;100562.38;4948801;28;118903;-73
2021/03/12 04:16:29;;;;;;;13.95;2.60;;;;;;;9.69;52.45;100554.66;4950776;28;123189;-72
2021/03/12 04:18:59;;;;;;;15.05;2.72;;;;;;;9.65;52.56;100554.88;4949972;28;123325;-72
2021/03/12 04:21:27;;;;;;;11.90;2.70;;;;;;;9.60;52.48;100555.06;4950564;28;118812;-72
2021/03/12 04:24:00;;;;;;;13.32;2.80;;;;;;;9.57;52.63;100559.63;4948834;28;118872;-72
2021/03/12 04:26:27;;;;;;;9.70;2.90;;;;;;;9.55;52.73;100567.66;4957118;28;124283;-72
2021/03/12 04:28:54;;;;;;;12.43;2.53;;;;;;;9.50;52.78;100567.84;4961230;28;123734;-72
2021/03/12 04:31:24;;;;;;;10.57;2.58;;;;;;;9.49;53.09;100558.22;4921642;28;119251;-72
2021/03/12 04:33:51;;;;;;;16.60;2.78;;;;;;;9.46;53.02;100566.28;4961168;28;118970;-73
2021/03/12 04:36:18;;;;;;;13.00;2.75;;;;;;;9.43;53.02;100569.03;4942326;28;123217;-72
2021/03/12 04:38:47;;;;;;;14.60;3.17;;;;;;;9.40;52.79;100569.19;4964406;28;124805;-73
2021/03/12 04:41:15;;;;;;;15.88;2.88;;;;;;;9.36;52.87;100578.16;4947526;28;119312;-73
2021/03/12 04:43:42;;;;;;;12.23;2.88;;;;;;;9.33;53.39;100570.41;4951617;28;122721;-72
2021/03/12 04:46:12;;;;;;;13.63;3.05;;;;;;;9.30;53.09;100573.16;4946340;28;123092;-72
2021/03/12 04:48:45;;;;;;;11.35;2.78;;;;;;;9.26;53.08;100576.88;4951554;28;123559;-73
2021/03/12 04:51:15;;;;;;;10.30;2.60;;;;;;;9.24;53.53;100573.44;4950681;28;117411;-73
2021/03/12 04:53:44;;;;;;;16.92;3.15;;;;;;;9.23;53.14;100582.28;4948844;28;117943;-73
2021/03/12 04:56:11;;;;;;;12.80;3.10;;;;;;;9.22;53.45;100580.56;4920865;28;123849;-72
2021/03/12 04:58:42;;;;;;;13.80;3.05;;;;;;;9.20;53.47;100582.44;4948795;28;122926;-72
2021/03/12 05:01:10;;;;;;;14.95;3.28;;;;;;;9.18;53.19;100589.56;4947143;28;119497;-73
2021/03/12 05:03:39;;;;;;;17.20;3.25;;;;;;;9.14;53.68;100584.41;4946191;28;119254;-73
2021/03/12 05:06:08;;;;;;;14.40;2.70;;;;;;;9.13;53.34;100587.09;4932057;28;123051;-72
2021/03/12 05:08:38;;;;;;;11.57;2.53;;;;;;;9.09;53.41;100591.66;4948478;28;123308;-72
2021/03/12 05:11:14;;;;;;;13.57;3.08;;;;;;;9.07;53.84;100588.22;4951371;28;118041;-72
2021/03/12 05:14:04;;;;;;;16.98;3.33;;;;;;;9.05;53.29;100584.81;4956502;28;118946;-72
2021/03/12 05:16:37;;;;;;;13.40;3.28;;;;;;;9.03;53.57;100586.66;4951635;28;123415;-72
2021/03/12 05:19:04;;;;;;;16.42;2.78;;;;;;;9.01;53.40;100577.94;4925274;28;123026;-72
2021/03/12 05:21:32;;;;;;;14.13;3.00;;;;;;;9.00;53.64;100589.41;4962175;28;119490;-72
2021/03/12 05:24:02;;;;;;;12.32;3.00;;;;;;;8.99;53.64;100586.84;4947699;28;118307;-73
2021/03/12 05:26:29;;;;;;;14.20;3.03;;;;;;;8.98;53.68;100588.63;4947883;28;123787;-72
2021/03/12 05:28:56;;;;;;;16.45;3.40;;;;;;;8.95;53.76;100594.06;4950665;28;123277;-72
2021/03/12 05:31:26;;;;;;;13.30;2.67;;;;;;;8.95;53.89;100599.34;4949994;28;119290;-72
2021/03/12 05:33:54;;;;;;;16.27;2.83;;;;;;;8.93;53.84;100595.91;4950813;28;118401;-72
2021/03/12 05:36:22;;;;;;;12.07;2.97;;;;;;;8.92;53.78;100604.72;4944756;28;123210;-72
2021/03/12 05:38:51;;;;;;;11.43;2.10;;;;;;;8.90;53.76;100596.03;4947592;28;123346;-72
2021/03/12 05:41:18;;;;;;;9.88;2.88;;;;;;;8.89;53.84;100589.00;4948539;28;118549;-72
2021/03/12 05:43:46;;;;;;;10.90;2.47;;;;;;;8.89;53.84;100589.00;4950512;28;118151;-73
2021/03/12 05:46:14;;;;;;;11.30;2.17;;;;;;;8.87;54.00;100601.41;4948335;28;123117;-72
2021/03/12 05:48:42;;;;;;;11.68;2.42;;;;;;;8.87;53.90;100598.78;4949577;28;123333;-72
2021/03/12 05:51:11;;;;;;;12.15;2.05;;;;;;;8.86;53.58;100603.22;4939048;28;120592;-72
2021/03/12 05:53:37;;;;;;;14.95;2.60;;;;;;;8.87;54.13;100590.84;4944700;28;119538;-72
2021/03/12 05:56:08;;;;;;;18.23;2.70;;;;;;;8.87;53.83;100596.13;4929374;28;123972;-72
2021/03/12 05:58:51;;;;;;;11.40;2.45;;;;;;;8.85;54.30;100593.56;4935146;28;123577;-72
2021/03/12 06:01:18;;;;;;;12.02;2.30;;;;;;;8.86;53.71;100602.34;4947431;28;118612;-72
2021/03/12 06:03:45;;;;;;;15.90;2.33;;;;;;;8.86;54.09;100605.00;4948697;28;118587;-72
2021/03/12 06:06:11;;;;;;;12.90;2.72;;;;;;;8.85;54.15;100592.69;4954352;28;124579;-72
2021/03/12 06:08:42;;;;;;;14.98;2.50;;;;;;;8.86;54.21;100599.72;4964987;28;124203;-73
2021/03/12 06:11:10;;;;;;;11.73;2.63;;;;;;;8.86;54.15;100594.44;4942658;28;118943;-72
2021/03/12 06:13:54;;;;;;;13.43;2.78;;;;;;;8.86;54.25;100589.16;4948846;28;118198;-72
2021/03/12 06:16:47;;;;;;;13.95;2.53;;;;;;;8.87;54.16;100588.22;4955411;28;123434;-72
2021/03/12 06:19:17;;;;;;;20.88;2.65;;;;;;;8.89;54.49;100578.44;4948382;28;123340;-72
2021/03/12 06:21:48;;;;;;;14.50;2.40;;;;;;;8.90;54.69;100586.31;4948633;28;119444;-72
2021/03/12 06:24:24;;;;;;;13.82;3.00;;;;;;;8.92;54.47;100588.88;4965588;28;119540;-72
2021/03/12 06:27:04;;;;;;;10.30;2.50;;;;;;;8.95;54.53;100583.50;4960375;28;123513;-72
2021/03/12 06:29:39;;;;;;;17.77;2.83;;;;;;;8.96;54.35;100585.19;4947964;28;123198;-72
2021/03/12 06:32:51;;;;;;;16.33;2.30;;;;;;;8.97;54.51;100589.56;4936268;28;118943;-72
2021/03/12 06:35:46;;;;;;;18.08;2.35;;;;;;;8.99;54.20;100595.63;4944100;28;118567;-72
2021/03/12 06:38:29;;;;;;;15.30;2.72;;;;;;;9.01;54.53;100592.94;4940225;28;123505;-72
2021/03/12 06:41:02;;;;;;;13.10;2.45;;;;;;;9.02;54.32;100595.47;4960813;28;123593;-72
2021/03/12 06:43:41;;;;;;;15.52;2.53;;;;;;;9.06;54.56;100602.38;4958551;28;120123;-72
2021/03/12 06:46:08;;;;;;;15.07;2.63;;;;;;;9.09;54.81;100596.94;4962382;22;118294;-67
2021/03/12 06:48:59;;;;;;;13.52;2.63;;;;;;;9.12;54.48;100596.81;4905091;28;123165;-67
2021/03/12 06:51:33;;;;;;;13.43;2.35;;;;;;;9.13;54.65;100598.53;4922880;28;123047;-67
2021/03/12 06:54:06;;;;;;;17.73;2.65;;;;;;;9.18;54.79;100594.84;4912163;28;118671;-68
2021/03/12 06:56:44;;;;;;;13.10;2.45;;;;;;;9.22;54.80;100596.44;4922475;28;118079;-67
2021/03/12 06:59:30;;;;;;;17.10;2.70;;;;;;;9.24;54.65;100611.28;4936094;28;123789;-67
2021/03/12 07:02:13;;;;;;;17.27;2.80;;;;;;;9.28;54.61;100601.44;4923014;28;122278;-67
2021/03/12 07:04:55;;;;;;;18.73;2.50;;;;;;;9.30;54.44;100595.16;4921599;28;118901;-67
2021/03/12 07:07:45;;;;;;;14.07;2.85;;;;;;;9.33;54.49;100604.75;4926083;28;118027;-68
2021/03/12 07:10:35;;;;;;;12.93;2.65;;;;;;;9.37;54.77;100598.41;4936660;28;124170;-68
2021/03/12 07:13:34;;;;;;;19.42;2.97;;;;;;;9.41;54.64;100597.34;4935174;28;124958;-68
2021/03/12 07:16:18;;;;;;;19.45;2.88;;;;;;;9.43;54.50;100603.41;4929075;28;119146;-68
2021/03/12 07:18:48;;;;;;;18.92;2.90;;;;;;;9.46;54.73;100605.94;4927436;28;118794;-67
2021/03/12 07:21:29;;;;;;;16.95;3.40;;;;;;;9.49;54.55;100605.81;4947650;28;122718;-67
2021/03/12 07:24:02;;;;;;;25.13;3.17;;;;;;;9.55;54.51;100604.66;4919923;28;122981;-68
2021/03/12 07:26:48;;;;;;;15.80;3.10;;;;;;;9.58;54.32;100615.09;4916088;28;119075;-68
2021/03/12 07:29:19;;;;;;;20.35;3.35;;;;;;;9.63;54.64;100612.25;4922525;28;118099;-68
2021/03/12 07:32:09;;;;;;;16.45;3.30;;;;;;;9.67;54.59;100608.53;4932349;28;123179;-68
2021/03/12 07:34:39;;;;;;;17.42;3.13;;;;;;;9.71;54.77;100615.41;4940495;28;123563;-68
2021/03/12 07:37:19;;;;;;;14.32;2.90;;;;;;;9.76;54.56;100613.41;4929565;28;118644;-68
2021/03/12 07:39:46;;;;;;;19.52;2.90;;;;;;;9.83;54.62;100609.56;4920788;28;119181;-68
2021/03/12 07:42:21;;;;;;;;;;;;;;;9.87;54.15;100611.13;4907327;28;123141;-68
2021/03/12 07:45:18;;;;;;;16.85;2.78;;;;;;;9.96;54.21;100611.63;4926003;28;125531;-67
2021/03/12 07:48:04;;;;;;;23.42;3.20;;;;;;;10.00;54.40;100605.25;4924401;28;119833;-68
2021/03/12 07:50:43;;;;;;;17.50;2.83;;;;;;;10.06;54.53;100615.59;4919929;28;118385;-68
2021/03/12 07:53:16;;;;;;;16.23;2.90;;;;;;;10.10;54.49;100607.41;4916441;28;123671;-67
2021/03/12 07:55:54;;;;;;;17.75;3.33;;;;;;;10.15;54.10;100609.84;4923849;28;123075;-68
2021/03/12 07:58:51;;;;;;;15.27;2.83;;;;;;;10.20;54.39;100607.84;4921950;28;121094;-68
2021/03/12 08:01:27;;;;;;;19.98;3.40;;;;;;;10.26;54.29;100607.53;4935017;28;118609;-68
2021/03/12 08:03:55;;;;;;;16.30;2.97;;;;;;;10.30;54.17;100603.88;4927442;28;123303;-68
2021/03/12 08:06:21;;;;;;;23.65;3.67;;;;;;;10.36;54.18;100596.53;4940401;28;123918;-68
2021/03/12 08:09:30;;;;;;;19.08;3.33;;;;;;;10.43;54.20;100600.63;4931758;28;118672;-68
2021/03/12 08:12:08;;;;;;;20.05;3.53;;;;;;;10.48;54.16;100611.84;4923361;28;118588;-68
2021/03/12 08:14:42;;;;;;;17.85;3.20;;;;;;;10.53;54.03;100601.91;4936269;28;124589;-68
2021/03/12 08:17:19;;;;;;;18.55;3.53;;;;;;;10.59;54.09;100606.91;4923487;28;123397;-68
2021/03/12 08:19:57;;;;;;;23.02;3.63;;;;;;;10.65;53.69;100609.22;4918753;28;118387;-69
2021/03/12 08:22:46;;;;;;;18.27;3.20;;;;;;;10.68;53.88;100598.50;4935972;28;118907;-68
2021/03/12 08:25:31;;;;;;;13.65;3.42;;;;;;;10.77;53.96;100601.63;4921176;28;122225;-68
2021/03/12 08:28:11;;;;;;;20.88;3.95;;;;;;;10.83;53.97;100607.47;4928218;28;123229;-68
2021/03/12 08:30:52;;;;;;;17.08;3.20;;;;;;;10.89;53.86;100608.97;4907943;28;119580;-69
2021/03/12 08:33:39;;;;;;;15.43;3.38;;;;;;;10.95;53.85;100598.03;4932616;28;120598;-69
2021/03/12 08:36:27;;;;;;;24.75;3.58;;;;;;;10.99;53.48;100591.66;4921412;28;123618;-69
2021/03/12 08:39:24;;;;;;;17.08;2.97;;;;;;;11.06;53.43;100608.13;4939661;28;124243;-68
2021/03/12 08:42:17;;;;;;;21.75;3.75;;;;;;;11.09;53.53;100592.91;4933708;28;120074;-69
2021/03/12 08:45:35;;;;;;;17.85;3.08;;;;;;;11.16;53.58;100592.59;4914356;28;119171;-69
2021/03/12 08:48:22;;;;;;;22.98;4.03;;;;;;;11.21;53.77;100590.56;4934573;28;124238;-69
2021/03/12 08:50:55;;;;;;;14.55;3.25;;;;;;;11.28;53.55;100597.25;4924508;28;123617;-68
2021/03/12 08:53:27;;;;;;;15.65;3.20;;;;;;;11.35;53.38;100593.34;4939895;28;119347;-70
2021/03/12 08:55:58;;;;;;;21.70;3.45;;;;;;;11.43;53.69;100596.47;4918585;28;118195;-68
2021/03/12 08:58:35;;;;;;;16.25;3.30;;;;;;;11.50;53.43;100589.88;4919873;28;124278;-70
2021/03/12 09:01:18;;;;;;;15.60;3.42;;;;;;;11.57;52.87;100592.22;4928104;28;122299;-68
2021/03/12 09:04:00;;;;;;;16.00;3.72;;;;;;;11.62;53.18;100579.56;4922506;28;118710;-68
2021/03/12 09:07:02;;;;;;;17.00;3.30;;;;;;;11.69;53.22;100572.97;4900837;28;119479;-69
2021/03/12 09:09:44;;;;;;;20.52;3.70;;;;;;;11.78;53.31;100585.75;4912510;28;123165;-68
2021/03/12 09:12:27;;;;;;;15.52;3.58;;;;;;;11.88;52.96;100571.06;4929580;28;123130;-68
2021/03/12 09:15:03;;;;;;;15.95;3.65;;;;;;;11.98;52.91;100575.84;4937635;28;118565;-69
2021/03/12 09:17:38;;;;;;;19.15;3.47;;;;;;;12.05;53.08;100566.63;4935628;28;118448;-67
2021/03/12 09:20:12;;;;;;;19.70;3.55;;;;;;;12.15;52.80;100570.50;4935487;28;123146;-67
2021/03/12 09:22:56;;;;;;;13.93;3.22;;;;;;;12.23;52.73;100576.22;4923375;28;123554;-67
2021/03/12 09:25:32;;;;;;;13.40;3.10;;;;;;;12.31;52.10;100572.28;4941347;28;118565;-67
2021/03/12 09:28:20;;;;;;;18.80;3.60;;;;;;;12.34;52.30;100566.78;4948843;28;119545;-69
2021/03/12 09:31:00;;;;;;;17.98;3.10;;;;;;;12.40;52.17;100555.81;4915829;28;123937;-67
2021/03/12 09:33:43;;;;;;;15.32;3.05;;;;;;;12.46;51.83;100550.16;4927454;28;123305;-68
2021/03/12 09:36:43;;;;;;;19.98;3.70;;;;;;;12.58;52.39;100544.16;4928695;28;120489;-67
2021/03/12 09:39:40;;;;;;;16.58;3.10;;;;;;;12.74;52.28;100543.25;4933070;28;119649;-67
2021/03/12 09:42:27;;;;;;;18.27;3.55;;;;;;;12.85;51.61;100546.13;4943385;28;124141;-68
2021/03/12 09:45:04;;;;;;;15.98;3.55;;;;;;;12.92;51.47;100552.78;4934519;28;123637;-68
2021/03/12 09:47:34;;;;;;;19.83;3.72;;;;;;;12.98;51.31;100544.44;4935000;28;118851;-68
2021/03/12 09:50:09;;;;;;;15.90;3.38;;;;;;;13.04;50.96;100536.09;4934669;28;118659;-67
2021/03/12 09:52:50;;;;;;;18.98;3.80;;;;;;;13.07;50.87;100544.81;4920362;28;123391;-68
2021/03/12 09:55:27;;;;;;;24.73;3.42;;;;;;;13.08;50.80;100541.22;4919509;28;123483;-67
2021/03/12 09:57:55;;;;;;;23.73;4.03;;;;;;;13.08;50.52;100541.22;4932825;28;119492;-69
2021/03/12 10:00:31;;;;;;;22.75;3.78;;;;;;;13.05;50.46;100534.28;4934514;28;118277;-67
2021/03/12 10:03:05;;;;;;;17.63;3.63;;;;;;;13.05;50.48;100535.16;4949185;28;123804;-67
2021/03/12 10:05:31;;;;;;;16.70;3.67;;;;;;;13.05;50.43;100532.50;4947981;28;124683;-67
2021/03/12 10:08:11;;;;;;;18.35;3.63;;;;;;;13.07;50.30;100531.53;4932829;28;119053;-67
2021/03/12 10:10:57;;;;;;;19.00;4.10;;;;;;;13.05;50.41;100537.81;4930550;28;118276;-68
2021/03/12 10:13:45;;;;;;;19.45;3.72;;;;;;;13.05;50.34;100527.19;4933017;28;123906;-67
2021/03/12 10:16:22;;;;;;;14.52;3.60;;;;;;;13.05;50.62;100521.84;4921927;28;123024;-68
2021/03/12 10:18:58;;;;;;;17.88;3.85;;;;;;;13.07;50.22;100523.56;4931006;28;120570;-68
2021/03/12 10:21:25;;;;;;;17.20;3.42;;;;;;;13.03;49.92;100523.75;4938348;28;120232;-68
2021/03/12 10:23:51;;;;;;;23.73;4.22;;;;;;;12.99;49.99;100516.88;4938086;28;123479;-68
2021/03/12 10:26:22;;;;;;;21.23;4.30;;;;;;;12.96;50.14;100511.78;4949673;28;122857;-67
2021/03/12 10:28:49;;;;;;;17.88;3.78;;;;;;;12.93;50.32;100503.97;4916594;28;118462;-69
2021/03/12 10:31:15;;;;;;;16.02;3.53;;;;;;;12.94;50.28;100508.34;4956193;28;119508;-68
2021/03/12 10:33:49;;;;;;;20.02;3.80;;;;;;;12.93;50.26;100500.47;4936236;28;123983;-68
2021/03/12 10:36:17;;;;;;;18.40;4.10;;;;;;;12.92;50.39;100499.63;4948687;28;122835;-68
2021/03/12 10:38:46;;;;;;;18.60;4.18;;;;;;;12.90;50.34;100501.50;4950826;28;119582;-68
2021/03/12 10:41:19;;;;;;;13.75;3.67;;;;;;;12.82;50.61;100501.94;4932405;28;118185;-68
2021/03/12 10:44:02;;;;;;;19.48;4.30;;;;;;;12.71;51.10;100500.91;4929593;28;124784;-68
2021/03/12 10:46:31;;;;;;;18.58;4.25;;;;;;;12.63;51.18;100499.53;4930986;28;124267;-68
2021/03/12 10:48:58;;;;;;;20.25;4.20;;;;;;;12.56;51.48;100487.56;4932866;28;120135;-68
2021/03/12 10:51:36;;;;;;;17.15;3.97;;;;;;;12.46;51.89;100489.91;4934275;28;119179;-68
2021/03/12 10:54:03;;;;;;;16.05;3.67;;;;;;;12.42;52.21;100491.03;4931675;28;123380;-68
2021/03/12 10:56:29;;;;;;;21.27;3.90;;;;;;;12.38;52.56;100478.88;4949558;28;123800;-68
2021/03/12 10:59:05;;;;;;;15.70;4.00;;;;;;;12.32;52.81;100479.25;4947437;28;119119;-68
2021/03/12 11:01:38;;;;;;;19.42;3.75;;;;;;;12.29;52.86;100479.41;4931144;28;119389;-69
2021/03/12 11:04:07;;;;;;;22.52;4.40;;;;;;;12.25;52.85;100468.13;4928546;28;124652;-68
2021/03/12 11:06:39;;;;;;;14.38;3.70;;;;;;;12.21;53.22;100471.06;4928394;28;123752;-68
2021/03/12 11:09:09;;;;;;;13.75;3.70;;;;;;;12.17;53.34;100470.38;4947353;28;120520;-68
2021/03/12 11:11:37;;;;;;;20.75;4.05;;;;;;;12.16;53.20;100468.66;4944851;28;120397;-68
2021/03/12 11:14:05;;;;;;;18.35;4.07;;;;;;;12.14;53.42;100464.38;4917582;28;123863;-68
2021/03/12 11:16:32;;;;;;;17.55;3.92;;;;;;;12.10;53.36;100468.16;4944701;28;123339;-68
2021/03/12 11:18:59;;;;;;;21.90;4.45;;;;;;;12.07;53.63;100458.56;4934989;28;119577;-68
2021/03/12 11:21:28;;;;;;;16.63;3.78;;;;;;;12.10;53.78;100462.84;4945743;28;118869;-68
2021/03/12 11:23:55;;;;;;;17.42;3.83;;;;;;;12.13;53.66;100452.91;4955773;28;123835;-67
2021/03/12 11:26:23;;;;;;;20.23;3.83;;;;;;;12.17;53.86;100454.44;4941658;28;123835;-67
2021/03/12 11:28:50;;;;;;;19.05;4.18;;;;;;;12.23;53.76;100458.53;4932564;28;119005;-69
2021/03/12 11:31:18;;;;;;;21.65;4.28;;;;;;;12.27;54.13;100455.59;4921427;28;120126;-68
2021/03/12 11:33:46;;;;;;;16.45;3.42;;;;;;;12.31;53.42;100450.13;4920394;28;123065;-69
2021/03/12 11:36:13;;;;;;;19.52;3.80;;;;;;;12.35;53.23;100446.34;4942659;28;123925;-67
2021/03/12 11:38:40;;;;;;;19.45;4.07;;;;;;;12.35;53.46;100441.03;4939857;28;118628;-68
2021/03/12 11:41:07;;;;;;;14.75;3.58;;;;;;;12.39;53.07;100434.59;4933303;28;119629;-68
2021/03/12 11:43:34;;;;;;;22.55;3.95;;;;;;;12.41;53.16;100440.66;4940690;28;123163;-69
2021/03/12 11:46:02;;;;;;;20.08;3.90;;;;;;;12.45;52.94;100436.88;4940733;28;122880;-69